Time;durP1;ratioP1;P1;durP2;ratioP2;P2;SDS_P1;SDS_P2;PMS_P1;PMS_P2;Temp;Humidity;BMP_temperature;BMP_pressure;BME280_temperature;BME280_humidity;BME280_pressure;Samples;Min_cycle;Max_cycle;Signal;HPM_P1;HPM_P2
2023/06/17 00:02:18;;;;;;;10.98;6.70;;;;;;;;;;5075373;28;20125;-52
2023/06/17 00:04:44;;;;;;;9.82;7.40;;;;;;;;;;5074816;28;20049;-52
2023/06/17 00:07:11;;;;;;;9.13;6.88;;;;;;;;;;5075766;28;20040;-52
2023/06/17 00:09:40;;;;;;;8.93;6.78;;;;;;;;;;5075626;28;20045;-52
2023/06/17 00:12:06;;;;;;;8.57;6.65;;;;;;;;;;5076157;28;20056;-52
2023/06/17 00:14:32;;;;;;;12.60;8.32;;;;;;;;;;5075576;28;20174;-52
2023/06/17 00:17:00;;;;;;;11.25;6.38;;;;;;;;;;5076796;28;20068;-53
2023/06/17 00:19:27;;;;;;;11.52;6.40;;;;;;;;;;5075312;28;20037;-52
2023/06/17 00:21:54;;;;;;;9.02;7.10;;;;;;;;;;5075573;27;20733;-52
2023/06/17 00:24:20;;;;;;;14.52;6.35;;;;;;;;;;5075714;28;20088;-52
2023/06/17 00:26:46;;;;;;;8.65;5.88;;;;;;;;;;5077290;28;20091;-52
2023/06/17 00:29:13;;;;;;;8.98;5.97;;;;;;;;;;5077103;28;20133;-52
2023/06/17 00:31:39;;;;;;;9.38;6.03;;;;;;;;;;5080720;28;20124;-52
2023/06/17 00:34:05;;;;;;;12.18;7.53;;;;;;;;;;5079987;28;20049;-52
2023/06/17 00:36:31;;;;;;;7.93;5.65;;;;;;;;;;5078979;28;20050;-52
2023/06/17 00:38:57;;;;;;;9.00;6.88;;;;;;;;;;5078487;28;20138;-52
2023/06/17 00:41:23;;;;;;;7.18;5.88;;;;;;;;;;5080369;28;20052;-52
2023/06/17 00:43:49;;;;;;;7.28;5.80;;;;;;;;;;5078872;28;20044;-52
2023/06/17 00:46:29;;;;;;;8.80;5.70;;;;;;;;;;5079639;28;20052;-52
2023/06/17 00:48:55;;;;;;;8.90;5.70;;;;;;;;;;5092259;27;20657;-52
2023/06/17 00:51:22;;;;;;;10.52;6.18;;;;;;;;;;5080185;28;20044;-52
2023/06/17 00:53:48;;;;;;;6.93;5.53;;;;;;;;;;5079278;28;20044;-52
2023/06/17 00:56:17;;;;;;;7.03;6.05;;;;;;;;;;5093338;27;20056;-52
2023/06/17 00:58:43;;;;;;;13.57;6.50;;;;;;;;;;5078337;27;20049;-52
2023/06/17 01:01:10;;;;;;;11.93;6.95;;;;;;;;;;5079099;28;20585;-52
2023/06/17 01:03:36;;;;;;;7.45;6.28;;;;;;;;;;5077860;28;20149;-52
2023/06/17 01:06:08;;;;;;;10.45;6.88;;;;;;;;;;5078889;28;20036;-52
2023/06/17 01:08:38;;;;;;;9.45;6.22;;;;;;;;;;5079228;28;20055;-52
2023/06/17 01:11:04;;;;;;;6.93;5.95;;;;;;;;;;5079814;28;20103;-52
2023/06/17 01:13:30;;;;;;;10.68;7.45;;;;;;;;;;5077767;28;20444;-52
2023/06/17 01:15:57;;;;;;;9.23;7.05;;;;;;;;;;5078670;28;20532;-52
2023/06/17 01:18:24;;;;;;;9.52;6.93;;;;;;;;;;5079048;28;20439;-52
2023/06/17 01:20:55;;;;;;;7.93;6.70;;;;;;;;;;5094298;27;20122;-52
2023/06/17 01:23:23;;;;;;;9.65;6.60;;;;;;;;;;5079715;28;20052;-52
2023/06/17 01:25:49;;;;;;;8.00;6.57;;;;;;;;;;5078745;28;20209;-52
2023/06/17 01:28:16;;;;;;;8.75;6.38;;;;;;;;;;5079853;28;20528;-52
2023/06/17 01:30:43;;;;;;;9.00;7.40;;;;;;;;;;5078279;28;20117;-52
2023/06/17 01:33:13;;;;;;;10.02;6.95;;;;;;;;;;5079271;28;20041;-52
2023/06/17 01:35:40;;;;;;;7.93;7.13;;;;;;;;;;5078812;28;20618;-52
2023/06/17 01:38:10;;;;;;;10.05;6.47;;;;;;;;;;5079300;28;21246;-52
2023/06/17 01:40:39;;;;;;;10.32;8.65;;;;;;;;;;5078394;28;20078;-52
2023/06/17 01:43:06;;;;;;;9.35;7.78;;;;;;;;;;5078591;28;20046;-52
2023/06/17 01:45:32;;;;;;;8.98;7.45;;;;;;;;;;5077937;27;20051;-52
2023/06/17 01:47:59;;;;;;;12.35;8.35;;;;;;;;;;5078093;28;20036;-52
2023/06/17 01:50:25;;;;;;;9.40;7.60;;;;;;;;;;5078608;28;20118;-52
2023/06/17 01:52:51;;;;;;;8.95;7.28;;;;;;;;;;5078719;28;20041;-52
2023/06/17 01:55:18;;;;;;;9.98;7.45;;;;;;;;;;5078537;28;20040;-52
2023/06/17 01:57:44;;;;;;;10.52;7.40;;;;;;;;;;5075264;28;20500;-52
2023/06/17 02:00:12;;;;;;;12.05;7.93;;;;;;;;;;5077782;28;20206;-52
2023/06/17 02:02:38;;;;;;;10.77;7.85;;;;;;;;;;5078188;28;20056;-52
2023/06/17 02:05:05;;;;;;;8.73;7.43;;;;;;;;;;5077373;28;20072;-52
2023/06/17 02:07:31;;;;;;;10.23;8.15;;;;;;;;;;5094494;27;20333;-52
2023/06/17 02:09:57;;;;;;;8.80;7.28;;;;;;;;;;5078639;28;20044;-52
2023/06/17 02:12:24;;;;;;;8.95;7.05;;;;;;;;;;5078985;28;20097;-52
2023/06/17 02:14:50;;;;;;;10.63;7.80;;;;;;;;;;5077289;28;20476;-52
2023/06/17 02:17:17;;;;;;;8.77;7.13;;;;;;;;;;5094720;27;20826;-52
2023/06/17 02:19:43;;;;;;;11.20;8.45;;;;;;;;;;5077370;28;20045;-52
2023/06/17 02:22:09;;;;;;;9.40;7.78;;;;;;;;;;5077430;28;20581;-52
2023/06/17 02:24:35;;;;;;;10.15;7.40;;;;;;;;;;5077717;27;20069;-56
2023/06/17 02:27:01;;;;;;;10.48;7.72;;;;;;;;;;5078060;28;20500;-52
2023/06/17 02:29:27;;;;;;;18.75;8.20;;;;;;;;;;5078173;28;20047;-52
2023/06/17 02:31:54;;;;;;;9.75;8.27;;;;;;;;;;5077812;28;20818;-52
2023/06/17 02:34:20;;;;;;;8.30;7.38;;;;;;;;;;5078299;28;20051;-52
2023/06/17 02:36:46;;;;;;;10.73;8.23;;;;;;;;;;5076997;28;20045;-52
2023/06/17 02:39:13;;;;;;;9.55;7.30;;;;;;;;;;5078551;28;20032;-52
2023/06/17 02:41:39;;;;;;;12.02;8.52;;;;;;;;;;5076772;28;20153;-52
2023/06/17 02:44:05;;;;;;;10.25;7.65;;;;;;;;;;5078182;28;20036;-52
2023/06/17 02:46:31;;;;;;;13.07;8.30;;;;;;;;;;5077986;28;20044;-52
2023/06/17 02:48:57;;;;;;;10.15;8.20;;;;;;;;;;5078109;28;20068;-52
2023/06/17 02:51:23;;;;;;;10.43;8.50;;;;;;;;;;5091978;27;20516;-52
2023/06/17 02:53:50;;;;;;;11.25;9.07;;;;;;;;;;5078018;28;20139;-52
2023/06/17 02:56:17;;;;;;;10.27;7.95;;;;;;;;;;5069152;28;20045;-52
2023/06/17 02:58:43;;;;;;;9.98;8.10;;;;;;;;;;5093611;27;20048;-52
2023/06/17 03:01:11;;;;;;;12.10;7.47;;;;;;;;;;5077468;28;20052;-52
2023/06/17 03:03:37;;;;;;;12.30;8.48;;;;;;;;;;5077967;28;20165;-52
2023/06/17 03:06:05;;;;;;;11.55;8.52;;;;;;;;;;5077635;28;20460;-52
2023/06/17 03:08:35;;;;;;;10.43;8.18;;;;;;;;;;5077590;28;20048;-52
2023/06/17 03:11:02;;;;;;;11.55;8.85;;;;;;;;;;5092655;27;20539;-52
2023/06/17 03:13:28;;;;;;;11.60;7.70;;;;;;;;;;5077801;28;20508;-53
2023/06/17 03:15:55;;;;;;;12.15;9.57;;;;;;;;;;5076463;28;20125;-52
2023/06/17 03:18:21;;;;;;;9.25;7.68;;;;;;;;;;5077862;28;20083;-52
2023/06/17 03:20:49;;;;;;;12.60;9.02;;;;;;;;;;5077201;28;20572;-52
2023/06/17 03:23:20;;;;;;;11.13;8.50;;;;;;;;;;5077037;28;20630;-52
2023/06/17 03:25:46;;;;;;;15.85;8.88;;;;;;;;;;5077433;28;20095;-52
2023/06/17 03:28:12;;;;;;;11.98;8.05;;;;;;;;;;5077294;28;20447;-52
2023/06/17 03:30:41;;;;;;;8.30;7.15;;;;;;;;;;5076852;28;20045;-52
2023/06/17 03:33:08;;;;;;;12.75;8.60;;;;;;;;;;5075478;28;20056;-52
2023/06/17 03:35:35;;;;;;;9.48;8.23;;;;;;;;;;5076709;28;20043;-52
2023/06/17 03:38:02;;;;;;;10.88;7.55;;;;;;;;;;5077215;28;20099;-52
2023/06/17 03:40:28;;;;;;;11.23;8.55;;;;;;;;;;5076714;28;20080;-52
2023/06/17 03:42:54;;;;;;;10.68;8.27;;;;;;;;;;5077314;28;20774;-52
2023/06/17 03:45:20;;;;;;;13.20;7.78;;;;;;;;;;5076743;28;20044;-52
2023/06/17 03:47:46;;;;;;;12.65;8.85;;;;;;;;;;5077193;28;20047;-52
2023/06/17 03:50:13;;;;;;;10.10;8.00;;;;;;;;;;5092311;27;20044;-52
2023/06/17 03:52:39;;;;;;;9.35;8.10;;;;;;;;;;5076538;28;20036;-52
2023/06/17 03:55:06;;;;;;;10.27;8.10;;;;;;;;;;5077050;28;20040;-52
2023/06/17 03:57:32;;;;;;;10.70;8.52;;;;;;;;;;5076778;28;20040;-52
2023/06/17 03:59:58;;;;;;;12.25;9.13;;;;;;;;;;5076068;28;20052;-52
2023/06/17 04:02:24;;;;;;;9.52;8.40;;;;;;;;;;5077473;28;20123;-52
2023/06/17 04:04:52;;;;;;;9.98;8.05;;;;;;;;;;5078382;28;20037;-52
2023/06/17 04:07:19;;;;;;;10.05;8.52;;;;;;;;;;5079585;27;20067;-52
2023/06/17 04:09:45;;;;;;;13.55;8.25;;;;;;;;;;5079603;28;20123;-52
2023/06/17 04:12:11;;;;;;;10.80;8.65;;;;;;;;;;5080262;28;20051;-52
2023/06/17 04:14:38;;;;;;;12.15;9.10;;;;;;;;;;5080081;28;20041;-52
2023/06/17 04:17:06;;;;;;;10.05;9.05;;;;;;;;;;5080125;28;20044;-52
2023/06/17 04:19:37;;;;;;;9.73;8.32;;;;;;;;;;5079847;28;20832;-52
2023/06/17 04:22:03;;;;;;;11.75;8.27;;;;;;;;;;5080309;28;20605;-51
2023/06/17 04:24:29;;;;;;;11.38;9.30;;;;;;;;;;5079532;28;20061;-52
2023/06/17 04:26:55;;;;;;;14.10;9.80;;;;;;;;;;5079181;28;20123;-52
2023/06/17 04:29:21;;;;;;;12.43;8.82;;;;;;;;;;5080803;28;20045;-52
2023/06/17 04:31:47;;;;;;;11.02;9.70;;;;;;;;;;5079671;28;20053;-52
2023/06/17 04:34:21;;;;;;;10.90;8.38;;;;;;;;;;5080589;28;20043;-52
2023/06/17 04:36:56;;;;;;;12.65;9.38;;;;;;;;;;5080252;28;20049;-52
2023/06/17 04:39:23;;;;;;;12.00;9.15;;;;;;;;;;5080107;28;20493;-52
2023/06/17 04:41:50;;;;;;;10.60;9.50;;;;;;;;;;5094626;27;20041;-52
2023/06/17 04:44:16;;;;;;;14.77;9.25;;;;;;;;;;5079725;28;20519;-52
2023/06/17 04:46:43;;;;;;;13.30;8.98;;;;;;;;;;5095696;27;20048;-52
2023/06/17 04:49:10;;;;;;;13.15;9.45;;;;;;;;;;5079810;28;20044;-52
2023/06/17 04:51:40;;;;;;;11.35;9.02;;;;;;;;;;5079888;28;20044;-52
2023/06/17 04:54:07;;;;;;;14.80;10.93;;;;;;;;;;5079903;28;20177;-52
2023/06/17 04:56:33;;;;;;;12.32;9.70;;;;;;;;;;5079873;28;20094;-52
2023/06/17 04:58:59;;;;;;;13.75;9.23;;;;;;;;;;5094697;27;20057;-52
2023/06/17 05:01:25;;;;;;;17.90;11.32;;;;;;;;;;5079095;28;20037;-52
2023/06/17 05:03:51;;;;;;;13.70;10.15;;;;;;;;;;5078911;28;20044;-52
2023/06/17 05:06:17;;;;;;;12.55;9.00;;;;;;;;;;5078964;28;20086;-52
2023/06/17 05:08:44;;;;;;;11.40;8.65;;;;;;;;;;5079621;28;20076;-52
2023/06/17 05:11:10;;;;;;;15.07;10.27;;;;;;;;;;5078300;28;20118;-52
2023/06/17 05:13:36;;;;;;;13.65;10.20;;;;;;;;;;5079344;28;20071;-52
2023/06/17 05:16:02;;;;;;;13.63;10.10;;;;;;;;;;5093595;27;20114;-52
2023/06/17 05:18:28;;;;;;;13.05;9.40;;;;;;;;;;5078175;28;20056;-52
2023/06/17 05:20:54;;;;;;;13.50;10.65;;;;;;;;;;5078396;28;20074;-52
2023/06/17 05:23:20;;;;;;;11.75;9.25;;;;;;;;;;5078751;28;20615;-52
2023/06/17 05:25:46;;;;;;;11.70;9.45;;;;;;;;;;5078371;28;20119;-52
2023/06/17 05:28:13;;;;;;;12.80;9.68;;;;;;;;;;5079859;28;20071;-51
2023/06/17 05:30:39;;;;;;;14.35;10.18;;;;;;;;;;5071043;28;20083;-51
2023/06/17 05:33:05;;;;;;;17.42;10.57;;;;;;;;;;5079803;28;20830;-52
2023/06/17 05:35:32;;;;;;;11.40;9.35;;;;;;;;;;5077094;28;20093;-52
2023/06/17 05:37:58;;;;;;;13.10;10.23;;;;;;;;;;5079371;28;20044;-52
2023/06/17 05:40:24;;;;;;;11.88;9.23;;;;;;;;;;5078334;28;20098;-52
2023/06/17 05:42:50;;;;;;;13.45;9.95;;;;;;;;;;5079204;28;20071;-52
2023/06/17 05:45:16;;;;;;;13.20;10.40;;;;;;;;;;5078550;28;20048;-52
2023/06/17 05:47:42;;;;;;;17.88;9.95;;;;;;;;;;5078807;28;20044;-52
2023/06/17 05:50:08;;;;;;;12.35;9.50;;;;;;;;;;5078815;28;20123;-51
2023/06/17 05:52:34;;;;;;;13.57;10.73;;;;;;;;;;5078143;28;20641;-51
2023/06/17 05:55:00;;;;;;;13.65;11.30;;;;;;;;;;5094059;27;20163;-51
2023/06/17 05:57:26;;;;;;;18.08;10.43;;;;;;;;;;5078922;28;20042;-52
2023/06/17 05:59:52;;;;;;;12.00;10.13;;;;;;;;;;5078343;28;20670;-52
2023/06/17 06:02:18;;;;;;;13.15;10.50;;;;;;;;;;5078087;28;20059;-51
2023/06/17 06:04:47;;;;;;;12.70;10.00;;;;;;;;;;5078151;28;20665;-52
2023/06/17 06:07:13;;;;;;;16.42;9.63;;;;;;;;;;5079205;28;20127;-52
2023/06/17 06:09:39;;;;;;;15.30;11.07;;;;;;;;;;5078744;28;20536;-51
2023/06/17 06:12:06;;;;;;;13.48;10.35;;;;;;;;;;5079321;27;20068;-51
2023/06/17 06:14:32;;;;;;;13.18;10.88;;;;;;;;;;5078287;28;20041;-51
2023/06/17 06:16:58;;;;;;;13.20;10.07;;;;;;;;;;5078603;28;20045;-52
2023/06/17 06:19:24;;;;;;;14.27;10.10;;;;;;;;;;5077868;28;20592;-52
2023/06/17 06:21:50;;;;;;;13.82;9.90;;;;;;;;;;5077801;28;20086;-51
2023/06/17 06:24:16;;;;;;;12.88;9.80;;;;;;;;;;5078359;28;20124;-52
2023/06/17 06:26:42;;;;;;;11.98;10.13;;;;;;;;;;5077403;28;20749;-52
2023/06/17 06:29:09;;;;;;;13.82;9.45;;;;;;;;;;5077943;28;20063;-51
2023/06/17 06:31:36;;;;;;;12.73;8.98;;;;;;;;;;5078010;28;20567;-51
2023/06/17 06:34:02;;;;;;;11.90;9.80;;;;;;;;;;5092805;27;20033;-51
2023/06/17 06:36:28;;;;;;;13.02;9.35;;;;;;;;;;5077723;28;20048;-52
2023/06/17 06:38:54;;;;;;;13.15;10.05;;;;;;;;;;5076503;28;20040;-52
2023/06/17 06:41:21;;;;;;;11.93;10.25;;;;;;;;;;5078127;28;20650;-51
2023/06/17 06:43:47;;;;;;;14.90;10.35;;;;;;;;;;5077626;28;20375;-52
2023/06/17 06:46:13;;;;;;;14.52;9.77;;;;;;;;;;5077221;28;20127;-51
2023/06/17 06:48:39;;;;;;;11.63;9.23;;;;;;;;;;5077318;28;20123;-52
2023/06/17 06:51:05;;;;;;;13.10;9.85;;;;;;;;;;5077099;28;20036;-52
2023/06/17 06:53:31;;;;;;;14.93;9.25;;;;;;;;;;5093757;27;20044;-52
2023/06/17 06:55:57;;;;;;;11.38;9.27;;;;;;;;;;5076812;28;20059;-51
2023/06/17 06:58:23;;;;;;;11.13;9.77;;;;;;;;;;5076623;28;20044;-52
2023/06/17 07:00:49;;;;;;;10.75;9.65;;;;;;;;;;5078082;28;20487;-52
2023/06/17 07:03:15;;;;;;;13.30;9.55;;;;;;;;;;5078029;28;20535;-51
2023/06/17 07:05:42;;;;;;;14.93;9.35;;;;;;;;;;5077964;28;20627;-52
2023/06/17 07:08:08;;;;;;;10.80;8.13;;;;;;;;;;5076714;28;20255;-52
2023/06/17 07:10:39;;;;;;;13.77;9.48;;;;;;;;;;5077944;28;20045;-52
2023/06/17 07:13:05;;;;;;;13.65;8.25;;;;;;;;;;5075815;28;20041;-52
2023/06/17 07:15:32;;;;;;;14.88;8.32;;;;;;;;;;5077955;28;20559;-52
2023/06/17 07:17:58;;;;;;;9.07;8.07;;;;;;;;;;5077225;28;20051;-51
2023/06/17 07:20:24;;;;;;;9.80;8.75;;;;;;;;;;5069861;28;20042;-52
2023/06/17 07:22:50;;;;;;;10.27;7.97;;;;;;;;;;5076705;28;20048;-52
2023/06/17 07:25:16;;;;;;;10.63;8.13;;;;;;;;;;5077617;28;20055;-52
2023/06/17 07:27:42;;;;;;;13.13;8.18;;;;;;;;;;5077056;28;20130;-52
2023/06/17 07:30:08;;;;;;;13.85;8.15;;;;;;;;;;5076309;28;20040;-52
2023/06/17 07:32:34;;;;;;;13.80;8.10;;;;;;;;;;5076706;28;20041;-52
2023/06/17 07:35:00;;;;;;;11.65;8.52;;;;;;;;;;5077319;28;20293;-52
2023/06/17 07:37:26;;;;;;;9.55;8.13;;;;;;;;;;5077580;28;20040;-51
2023/06/17 07:39:52;;;;;;;10.82;8.45;;;;;;;;;;5081424;28;20158;-52
2023/06/17 07:42:18;;;;;;;10.38;8.57;;;;;;;;;;5080311;28;20579;-52
2023/06/17 07:44:45;;;;;;;13.32;8.23;;;;;;;;;;5080496;27;20088;-52
2023/06/17 07:47:11;;;;;;;10.23;8.15;;;;;;;;;;5080197;28;20036;-52
2023/06/17 07:49:38;;;;;;;9.38;8.27;;;;;;;;;;5080609;28;20153;-52
2023/06/17 07:52:04;;;;;;;14.07;7.93;;;;;;;;;;5080575;28;20087;-51
2023/06/17 07:54:35;;;;;;;9.93;8.30;;;;;;;;;;5080815;28;20060;-52
2023/06/17 07:57:01;;;;;;;11.95;8.43;;;;;;;;;;5080544;28;20357;-52
2023/06/17 07:59:27;;;;;;;11.48;9.32;;;;;;;;;;5081590;28;20099;-51
2023/06/17 08:01:54;;;;;;;18.63;9.13;;;;;;;;;;5080871;28;20117;-52
2023/06/17 08:04:20;;;;;;;9.57;8.45;;;;;;;;;;5079726;28;20048;-52
2023/06/17 08:06:46;;;;;;;9.70;8.52;;;;;;;;;;5080069;27;20060;-52
2023/06/17 08:09:12;;;;;;;11.57;9.45;;;;;;;;;;5081657;28;20044;-52
2023/06/17 08:11:38;;;;;;;11.52;8.88;;;;;;;;;;5079876;28;20056;-52
2023/06/17 08:14:04;;;;;;;11.88;8.18;;;;;;;;;;5080570;28;20043;-52
2023/06/17 08:16:30;;;;;;;11.05;8.63;;;;;;;;;;5080971;28;20051;-52
2023/06/17 08:18:56;;;;;;;12.05;8.27;;;;;;;;;;5080294;28;20154;-52
2023/06/17 08:21:22;;;;;;;11.75;7.90;;;;;;;;;;5079324;28;20515;-52
2023/06/17 08:23:51;;;;;;;8.90;7.78;;;;;;;;;;5079433;28;20091;-52
2023/06/17 08:26:17;;;;;;;9.80;8.27;;;;;;;;;;5095570;27;20128;-51
2023/06/17 08:28:43;;;;;;;9.05;7.47;;;;;;;;;;5080042;28;20072;-52
2023/06/17 08:31:09;;;;;;;10.10;7.97;;;;;;;;;;5080548;28;20484;-52
2023/06/17 08:33:35;;;;;;;9.57;8.23;;;;;;;;;;5078878;28;20071;-51
2023/06/17 08:36:01;;;;;;;13.55;8.55;;;;;;;;;;5080013;28;20102;-52
2023/06/17 08:38:27;;;;;;;8.48;7.32;;;;;;;;;;5078862;28;20048;-52
2023/06/17 08:40:53;;;;;;;7.57;6.85;;;;;;;;;;5079454;28;20051;-52
2023/06/17 08:43:20;;;;;;;9.68;7.50;;;;;;;;;;5079194;28;20059;-52
2023/06/17 08:45:49;;;;;;;10.70;7.70;;;;;;;;;;5079879;28;20153;-51
2023/06/17 08:48:16;;;;;;;11.27;8.35;;;;;;;;;;5079890;28;20044;-52
2023/06/17 08:50:44;;;;;;;9.20;7.10;;;;;;;;;;5078282;28;20611;-52
2023/06/17 08:53:11;;;;;;;13.85;8.20;;;;;;;;;;5078623;28;20044;-52
2023/06/17 08:55:38;;;;;;;8.35;7.05;;;;;;;;;;5079209;28;20530;-52
2023/06/17 08:58:04;;;;;;;8.10;6.43;;;;;;;;;;5090877;27;20032;-52
2023/06/17 09:00:30;;;;;;;10.75;7.35;;;;;;;;;;5080102;28;20044;-52
2023/06/17 09:03:00;;;;;;;12.75;8.25;;;;;;;;;;5079409;28;20040;-52
2023/06/17 09:05:26;;;;;;;10.57;7.75;;;;;;;;;;5079418;28;20448;-52
2023/06/17 09:07:52;;;;;;;8.13;6.38;;;;;;;;;;5094685;27;20090;-51
2023/06/17 09:10:19;;;;;;;8.75;7.63;;;;;;;;;;5078838;28;20102;-52
2023/06/17 09:12:45;;;;;;;10.00;6.82;;;;;;;;;;5078234;28;20076;-52
2023/06/17 09:15:15;;;;;;;11.10;7.35;;;;;;;;;;5078241;28;20036;-52
2023/06/17 09:17:43;;;;;;;11.27;7.47;;;;;;;;;;5078884;28;20047;-52
2023/06/17 09:20:10;;;;;;;8.02;6.63;;;;;;;;;;5095164;27;20048;-52
2023/06/17 09:22:39;;;;;;;8.60;6.93;;;;;;;;;;5079373;28;20045;-52
2023/06/17 09:25:05;;;;;;;9.63;6.65;;;;;;;;;;5094455;27;20135;-52
2023/06/17 09:27:32;;;;;;;8.57;7.30;;;;;;;;;;5078854;28;20654;-52
2023/06/17 09:30:09;;;;;;;8.18;6.72;;;;;;;;;;5079475;28;20524;-52
2023/06/17 09:32:42;;;;;;;9.05;6.65;;;;;;;;;;5078730;28;20055;-52
2023/06/17 09:35:14;;;;;;;10.75;7.45;;;;;;;;;;5078299;28;20044;-52
2023/06/17 09:37:41;;;;;;;11.43;6.80;;;;;;;;;;5079751;28;20040;-52
2023/06/17 09:40:07;;;;;;;9.15;6.82;;;;;;;;;;5093122;27;20094;-52
2023/06/17 09:42:34;;;;;;;8.40;6.43;;;;;;;;;;5079651;28;20405;-52
2023/06/17 09:45:03;;;;;;;11.45;6.93;;;;;;;;;;5078355;28;20531;-52
2023/06/17 09:47:38;;;;;;;11.15;7.38;;;;;;;;;;5078258;28;20060;-52
2023/06/17 09:50:11;;;;;;;8.82;6.80;;;;;;;;;;5076338;28;20157;-52
2023/06/17 09:52:38;;;;;;;9.57;6.35;;;;;;;;;;5074509;28;20057;-52
2023/06/17 09:55:04;;;;;;;8.18;7.03;;;;;;;;;;5075149;28;20040;-52
2023/06/17 09:57:35;;;;;;;7.40;6.47;;;;;;;;;;5075996;28;20531;-52
2023/06/17 10:00:10;;;;;;;6.18;5.50;;;;;;;;;;5076154;28;20033;-52
2023/06/17 10:02:39;;;;;;;11.50;6.45;;;;;;;;;;5078395;28;20127;-52
2023/06/17 10:05:06;;;;;;;7.90;6.93;;;;;;;;;;5077524;28;20596;-52
2023/06/17 10:07:32;;;;;;;11.80;8.77;;;;;;;;;;5075695;28;20045;-52
2023/06/17 10:10:00;;;;;;;7.65;6.22;;;;;;;;;;5091082;27;20092;-52
2023/06/17 10:12:26;;;;;;;7.47;6.50;;;;;;;;;;5078644;28;20040;-52
2023/06/17 10:14:52;;;;;;;10.80;5.72;;;;;;;;;;5069472;28;20061;-52
2023/06/17 10:17:20;;;;;;;8.68;7.18;;;;;;;;;;5077114;28;20040;-52
2023/06/17 10:19:46;;;;;;;8.63;6.07;;;;;;;;;;5077777;28;20041;-52
2023/06/17 10:22:14;;;;;;;7.13;6.38;;;;;;;;;;5077493;28;20044;-53
2023/06/17 10:24:40;;;;;;;8.60;6.47;;;;;;;;;;5093099;27;20060;-52
2023/06/17 10:27:07;;;;;;;8.18;6.05;;;;;;;;;;5078109;28;20036;-52
2023/06/17 10:29:33;;;;;;;10.32;5.35;;;;;;;;;;5078280;28;20044;-52
2023/06/17 10:32:19;;;;;;;7.95;5.72;;;;;;;;;;5077580;28;20119;-52
2023/06/17 10:35:04;;;;;;;7.13;5.25;;;;;;;;;;5077575;28;20440;-52
2023/06/17 10:37:30;;;;;;;5.60;4.93;;;;;;;;;;5077808;28;20197;-52
2023/06/17 10:40:16;;;;;;;8.02;6.13;;;;;;;;;;5077669;28;20086;-52
2023/06/17 10:42:52;;;;;;;7.45;5.65;;;;;;;;;;5077245;28;20051;-52
2023/06/17 10:45:18;;;;;;;8.38;5.00;;;;;;;;;;5093280;27;20067;-52
2023/06/17 10:47:44;;;;;;;7.47;4.95;;;;;;;;;;5078396;28;20543;-52
2023/06/17 10:50:12;;;;;;;10.57;4.50;;;;;;;;;;5070340;28;20083;-52
2023/06/17 10:52:41;;;;;;;10.05;5.45;;;;;;;;;;5076537;28;20125;-52
2023/06/17 10:55:09;;;;;;;7.80;4.68;;;;;;;;;;5078673;28;20049;-52
2023/06/17 10:57:36;;;;;;;7.35;5.60;;;;;;;;;;5077961;28;20037;-52
2023/06/17 11:00:08;;;;;;;7.45;5.68;;;;;;;;;;5092896;27;20131;-52
2023/06/17 11:02:34;;;;;;;7.10;4.75;;;;;;;;;;5078923;28;20044;-52
2023/06/17 11:05:01;;;;;;;7.60;4.72;;;;;;;;;;5077532;28;20045;-52
2023/06/17 11:07:27;;;;;;;6.90;5.82;;;;;;;;;;5078447;27;20536;-52
2023/06/17 11:09:53;;;;;;;5.63;5.03;;;;;;;;;;5076519;28;20048;-52
2023/06/17 11:12:19;;;;;;;5.43;4.78;;;;;;;;;;5077518;28;20083;-52
2023/06/17 11:14:46;;;;;;;4.95;4.00;;;;;;;;;;5092758;27;20043;-52
2023/06/17 11:17:12;;;;;;;7.43;4.80;;;;;;;;;;5077680;28;20045;-52
2023/06/17 11:19:38;;;;;;;7.82;5.00;;;;;;;;;;5077114;28;20111;-52
2023/06/17 11:22:04;;;;;;;5.97;4.95;;;;;;;;;;5069075;28;20488;-52
2023/06/17 11:24:30;;;;;;;9.73;5.88;;;;;;;;;;5076783;28;20133;-52
2023/06/17 11:26:57;;;;;;;7.93;4.75;;;;;;;;;;5069802;28;20044;-52
2023/06/17 11:29:24;;;;;;;8.18;4.68;;;;;;;;;;5076295;27;20044;-52
2023/06/17 11:31:51;;;;;;;7.88;5.22;;;;;;;;;;5077058;28;20072;-52
2023/06/17 11:34:17;;;;;;;7.22;5.38;;;;;;;;;;5077397;28;20040;-52
2023/06/17 11:36:43;;;;;;;7.85;4.85;;;;;;;;;;5077170;28;20033;-53
2023/06/17 11:39:09;;;;;;;7.10;5.38;;;;;;;;;;5077084;28;20037;-52
2023/06/17 11:41:36;;;;;;;6.18;4.95;;;;;;;;;;5077160;28;20051;-52
2023/06/17 11:44:03;;;;;;;5.53;4.13;;;;;;;;;;5076690;28;20535;-52
2023/06/17 11:46:29;;;;;;;17.65;10.80;;;;;;;;;;5075900;28;20586;-52
2023/06/17 11:48:56;;;;;;;10.23;8.52;;;;;;;;;;5077249;28;20040;-52
2023/06/17 11:51:22;;;;;;;17.88;10.52;;;;;;;;;;5076671;28;20508;-52
2023/06/17 11:53:49;;;;;;;48.22;29.15;;;;;;;;;;5076397;28;20056;-52
2023/06/17 11:56:16;;;;;;;60.38;42.10;;;;;;;;;;5068137;28;20128;-52
2023/06/17 11:58:45;;;;;;;20.10;13.43;;;;;;;;;;5076514;28;20070;-52
2023/06/17 12:01:12;;;;;;;18.50;13.82;;;;;;;;;;5091364;27;20855;-52
2023/06/17 12:03:38;;;;;;;10.80;7.30;;;;;;;;;;5076395;28;20134;-53
2023/06/17 12:06:04;;;;;;;5.75;4.40;;;;;;;;;;5090725;28;20048;-52
2023/06/17 12:08:34;;;;;;;5.55;4.65;;;;;;;;;;5077489;28;20047;-53
2023/06/17 12:11:22;;;;;;;6.30;4.00;;;;;;;;;;5076044;28;20045;-52
2023/06/17 12:13:50;;;;;;;5.05;3.97;;;;;;;;;;5077284;28;20171;-52
2023/06/17 12:16:39;;;;;;;5.93;4.20;;;;;;;;;;5076951;28;20032;-52
2023/06/17 12:19:07;;;;;;;9.30;3.40;;;;;;;;;;5076840;28;20041;-52
2023/06/17 12:21:34;;;;;;;6.63;4.28;;;;;;;;;;5076250;28;20039;-52
2023/06/17 12:24:00;;;;;;;5.15;3.63;;;;;;;;;;5075799;28;20056;-53
2023/06/17 12:26:26;;;;;;;5.07;3.75;;;;;;;;;;5080008;28;20123;-53
2023/06/17 12:28:53;;;;;;;6.72;4.15;;;;;;;;;;5079865;28;20163;-53
2023/06/17 12:31:19;;;;;;;5.07;3.28;;;;;;;;;;5080423;28;20090;-52
2023/06/17 12:33:49;;;;;;;3.90;2.95;;;;;;;;;;5079763;28;20043;-52
2023/06/17 12:36:16;;;;;;;4.57;3.35;;;;;;;;;;5080295;28;20933;-52
2023/06/17 12:38:42;;;;;;;3.75;2.75;;;;;;;;;;5079995;28;20159;-52
2023/06/17 12:41:10;;;;;;;5.15;3.15;;;;;;;;;;5078584;28;20071;-52
2023/06/17 12:43:38;;;;;;;4.15;3.00;;;;;;;;;;5079935;28;20044;-52
2023/06/17 12:46:05;;;;;;;3.75;2.83;;;;;;;;;;5079640;28;20037;-52
2023/06/17 12:48:31;;;;;;;4.20;3.03;;;;;;;;;;5071866;28;20040;-52
2023/06/17 12:50:57;;;;;;;4.75;3.63;;;;;;;;;;5079050;28;20563;-52
2023/06/17 12:53:23;;;;;;;5.20;3.60;;;;;;;;;;5079412;28;20115;-52
2023/06/17 12:55:55;;;;;;;5.75;2.90;;;;;;;;;;5078852;28;20041;-52
2023/06/17 12:58:21;;;;;;;4.07;2.78;;;;;;;;;;5094337;28;20033;-52
2023/06/17 13:00:47;;;;;;;6.10;3.30;;;;;;;;;;5079486;28;20582;-52
2023/06/17 13:03:13;;;;;;;4.60;3.20;;;;;;;;;;5078821;28;20045;-52
2023/06/17 13:05:40;;;;;;;5.10;3.13;;;;;;;;;;5079556;28;20553;-52
2023/06/17 13:08:06;;;;;;;6.13;3.45;;;;;;;;;;5070552;28;20618;-52
2023/06/17 13:10:32;;;;;;;5.53;3.97;;;;;;;;;;5079760;28;20075;-52
2023/06/17 13:12:58;;;;;;;8.75;3.50;;;;;;;;;;5078133;28;20071;-54
2023/06/17 13:15:24;;;;;;;3.90;3.38;;;;;;;;;;5094634;27;20083;-52
2023/06/17 13:17:51;;;;;;;4.82;3.95;;;;;;;;;;5078250;27;20405;-52
2023/06/17 13:20:17;;;;;;;5.55;3.47;;;;;;;;;;5079441;28;20108;-52
2023/06/17 13:22:43;;;;;;;5.82;4.82;;;;;;;;;;5078630;28;20101;-52
2023/06/17 13:25:09;;;;;;;4.78;4.30;;;;;;;;;;5079498;28;20102;-52
2023/06/17 13:27:35;;;;;;;3.80;3.22;;;;;;;;;;5078960;28;20170;-52
2023/06/17 13:30:01;;;;;;;5.13;3.60;;;;;;;;;;5078549;28;20072;-52
2023/06/17 13:32:27;;;;;;;6.88;3.50;;;;;;;;;;5078326;28;20041;-53
2023/06/17 13:34:54;;;;;;;5.03;3.42;;;;;;;;;;5079598;28;20096;-52
2023/06/17 13:37:20;;;;;;;6.35;4.13;;;;;;;;;;5078355;28;20044;-52
2023/06/17 13:39:46;;;;;;;5.20;4.22;;;;;;;;;;5079348;28;20055;-52
2023/06/17 13:42:12;;;;;;;5.03;3.75;;;;;;;;;;5078733;28;20046;-52
2023/06/17 13:44:39;;;;;;;6.63;3.95;;;;;;;;;;5079079;28;20036;-52
2023/06/17 13:47:05;;;;;;;5.55;4.15;;;;;;;;;;5078868;28;20095;-52
2023/06/17 13:49:32;;;;;;;4.63;3.20;;;;;;;;;;5078066;28;20045;-52
2023/06/17 13:51:58;;;;;;;6.70;3.45;;;;;;;;;;5094866;27;20571;-52
2023/06/17 13:54:26;;;;;;;12.05;4.55;;;;;;;;;;5078753;28;20516;-52
2023/06/17 13:56:53;;;;;;;5.38;4.38;;;;;;;;;;5079081;28;20068;-52
2023/06/17 13:59:19;;;;;;;5.30;4.28;;;;;;;;;;5079371;28;20127;-52
2023/06/17 14:01:45;;;;;;;6.25;3.83;;;;;;;;;;5078642;28;20059;-52
2023/06/17 14:04:11;;;;;;;6.40;4.32;;;;;;;;;;5094526;27;20044;-53
2023/06/17 14:06:37;;;;;;;5.20;4.28;;;;;;;;;;5077199;28;20532;-52
2023/06/17 14:09:05;;;;;;;4.57;3.67;;;;;;;;;;5078829;28;20682;-52
2023/06/17 14:11:38;;;;;;;6.65;3.60;;;;;;;;;;5077992;28;20052;-52
2023/06/17 14:14:05;;;;;;;6.28;4.53;;;;;;;;;;5093812;27;20041;-52
2023/06/17 14:16:31;;;;;;;6.90;4.05;;;;;;;;;;5077828;27;20045;-52
2023/06/17 14:18:57;;;;;;;6.00;4.80;;;;;;;;;;5077697;28;20044;-52
2023/06/17 14:21:28;;;;;;;5.15;3.95;;;;;;;;;;5092940;27;20155;-53
2023/06/17 14:24:06;;;;;;;5.47;3.65;;;;;;;;;;5078446;28;20056;-52
2023/06/17 14:26:40;;;;;;;4.15;3.58;;;;;;;;;;5078468;28;20076;-53
2023/06/17 14:29:07;;;;;;;6.43;4.68;;;;;;;;;;5076829;28;20564;-52
2023/06/17 14:31:33;;;;;;;5.47;4.03;;;;;;;;;;5093326;27;20044;-53
2023/06/17 14:33:59;;;;;;;4.18;3.28;;;;;;;;;;5077622;28;20116;-52
2023/06/17 14:36:25;;;;;;;7.22;4.38;;;;;;;;;;5070303;28;20040;-52